RJTT/HND METAR and TAF weather

Enter ICAO airport designator
Station Type Date Time Source
RJTT METAR 2019/02/17 07:30 UTC NOAA

RJTT 170730Z 01007KT CAVOK 10/M06 Q1015 NOSIG RMK A2999


Station Type Date Time Source
RJTT Decoded METAR 2019/02/17 07:30 UTC NOAA

Tokyo International Airport, Japan (RJTT) 35-33N 139-47E 8M
Feb 17, 2019 - 02:30 AM EST / 2019.02.17 0730 UTC
Wind: from the N (010 degrees) at 8 MPH (7 KT):0
Visibility: greater than 7 mile(s):0
Temperature: 50 F (10 C)
Dew Point: 21 F (-6 C)
Relative Humidity: 31%
Pressure (altimeter): 29.97 in. Hg (1015 hPa)
ob: RJTT 170730Z 01007KT CAVOK 10/M06 Q1015 NOSIG RMK A2999
cycle: 7

Station Type Date Time Source
RJTT TAF 2019/02/17 06:30 UTC NOAA

TAF RJTT 170505Z 1706/1812 01010KT 9999 FEW030
BECMG 1709/1711 35020KT
BECMG 1721/1800 34008KT
BECMG 1800/1803 10006KT
BECMG 1803/1806 18010KT


Example: see airport list